Coweta, Oklahoma
Current Conditions -  °F | °C
As of 6:53 PM on Tuesday 21 Oct 2014 (Local Time) from KRVS Reporting Station
Clear Clear  
Wind Chill: 73°   Ceiling: Unl
Heat Index: 73°   Visibility: 10mi
Dew Point: 62°   Wind: 0mph
Humidity: 68%   Direction: NA
Pressure: 30.02"   Gusts: NA
Location:  35.95°N, 95.65°W
Report Text: KRVS 212353Z 00000KT 10SM CLR 23/17 A3002 RMK AO2 SLP172 T02280167 10278 20228 55001
Loading
Personal Weather Stations






























Interactive Weather Map
Tropical Storm Tracking
New forecast layout! Learn more

10-Day Weather Forecast

Advertisements
Track Severe Weather on mobile